createdAt,value
2023-03-06T00:00:31.826Z,54.7
2023-03-06T00:02:15.547Z,54.8
2023-03-06T00:03:59.203Z,54.8
2023-03-06T00:05:42.887Z,54.8
2023-03-06T00:07:26.593Z,54.8
2023-03-06T00:09:10.286Z,54.8
2023-03-06T00:10:53.990Z,54.8
2023-03-06T00:12:37.706Z,54.8
2023-03-06T00:14:21.398Z,54.9
2023-03-06T00:16:05.099Z,54.9
2023-03-06T00:17:48.806Z,54.9
2023-03-06T00:19:32.578Z,55
2023-03-06T00:21:16.228Z,55
2023-03-06T00:22:59.911Z,55
2023-03-06T00:24:43.662Z,55.1
2023-03-06T00:26:27.322Z,55.1
2023-03-06T00:28:11.046Z,55.2
2023-03-06T00:29:54.725Z,55.2
2023-03-06T00:31:38.429Z,55.2
2023-03-06T00:33:22.133Z,55.2
2023-03-06T00:35:05.829Z,54.8
2023-03-06T00:36:49.525Z,54.9
2023-03-06T00:38:33.230Z,55
2023-03-06T00:40:16.934Z,55
2023-03-06T00:42:00.643Z,55.1
2023-03-06T00:43:44.354Z,55.1
2023-03-06T00:45:28.040Z,55.1
2023-03-06T00:47:11.752Z,55.1
2023-03-06T00:48:55.451Z,55.1
2023-03-06T00:50:39.182Z,54.8
2023-03-06T00:52:22.866Z,54.6
2023-03-06T00:54:06.592Z,54.3
2023-03-06T00:55:50.273Z,54.1
2023-03-06T00:57:33.961Z,54.2
2023-03-06T00:59:17.733Z,54.3
2023-03-06T01:01:01.350Z,54.4
2023-03-06T01:02:45.059Z,54.5
2023-03-06T01:04:28.771Z,54.5
2023-03-06T01:06:12.465Z,54.5
2023-03-06T01:07:56.204Z,54.6
2023-03-06T01:09:39.876Z,54.6
2023-03-06T01:11:23.575Z,54.6
2023-03-06T01:13:07.291Z,54.6
2023-03-06T01:14:50.980Z,54.7
2023-03-06T01:16:34.681Z,54.7
2023-03-06T01:18:18.386Z,54.8
2023-03-06T01:20:02.190Z,54.9
2023-03-06T01:21:45.862Z,54.9
2023-03-06T01:23:29.498Z,54.9
2023-03-06T01:25:13.279Z,55
2023-03-06T01:26:56.885Z,55
2023-03-06T01:28:40.601Z,55.1
2023-03-06T01:30:24.293Z,55.1
2023-03-06T01:32:07.994Z,55.1
2023-03-06T01:33:51.703Z,55.2
2023-03-06T01:35:35.407Z,55.2
2023-03-06T01:37:19.097Z,55.2
2023-03-06T01:39:02.806Z,55.2
2023-03-06T01:40:46.573Z,55.3
2023-03-06T01:42:30.280Z,55.3
2023-03-06T01:44:14.027Z,55.3
2023-03-06T01:45:57.619Z,55.3
2023-03-06T01:47:41.318Z,55.3
2023-03-06T01:49:25.067Z,55.3
2023-03-06T01:51:08.719Z,55.3
2023-03-06T01:52:52.423Z,55.4
2023-03-06T01:54:36.129Z,55.4
2023-03-06T01:56:19.827Z,55.4
2023-03-06T01:58:03.531Z,55.4
2023-03-06T01:59:47.233Z,55.4
2023-03-06T02:01:30.939Z,55.5
2023-03-06T02:03:14.655Z,55.4
2023-03-06T02:04:58.330Z,55.5
2023-03-06T02:06:42.069Z,55.5
2023-03-06T02:08:25.748Z,55.5
2023-03-06T02:10:09.445Z,55.5
2023-03-06T02:11:53.151Z,55.5
2023-03-06T02:13:36.861Z,55.5
2023-03-06T02:15:20.567Z,55.6
2023-03-06T02:17:04.264Z,55.6
2023-03-06T02:18:47.959Z,55.6
2023-03-06T02:20:31.669Z,55.6
2023-03-06T02:22:15.378Z,55.6
2023-03-06T02:23:59.064Z,55.6
2023-03-06T02:25:42.785Z,55.7
2023-03-06T02:27:26.483Z,55.7
2023-03-06T02:29:10.182Z,55.7
2023-03-06T02:30:53.893Z,55.8
2023-03-06T02:32:37.582Z,55.8
2023-03-06T02:34:21.303Z,55.8
2023-03-06T02:36:05.034Z,55.8
2023-03-06T02:37:48.682Z,55.8
2023-03-06T02:39:32.390Z,55.8
2023-03-06T02:41:16.105Z,55.8
2023-03-06T02:42:59.806Z,55.9
2023-03-06T02:44:43.517Z,55.9
2023-03-06T02:46:27.204Z,55.9
2023-03-06T02:48:10.904Z,55.9
2023-03-06T02:49:54.662Z,56
2023-03-06T02:51:38.326Z,56
2023-03-06T02:53:22.023Z,56
2023-03-06T02:55:05.714Z,56
2023-03-06T02:56:49.422Z,56
2023-03-06T02:58:33.119Z,56
2023-03-06T03:00:16.820Z,56
2023-03-06T03:02:00.529Z,56
2023-03-06T03:03:44.280Z,56.1
2023-03-06T03:05:27.922Z,56.1
2023-03-06T03:07:11.621Z,56.1
2023-03-06T03:08:55.330Z,56.1
2023-03-06T03:10:39.050Z,56.1
2023-03-06T03:12:22.732Z,56.2
2023-03-06T03:14:06.486Z,56.2
2023-03-06T03:15:50.144Z,56.2
2023-03-06T03:17:33.843Z,56.2
2023-03-06T03:19:17.587Z,56.2
2023-03-06T03:21:01.282Z,56.2
2023-03-06T03:22:44.958Z,56.2
2023-03-06T03:24:28.657Z,56.2
2023-03-06T03:26:12.370Z,56.3
2023-03-06T03:27:56.063Z,56.3
2023-03-06T03:29:39.768Z,56.3
2023-03-06T03:31:23.483Z,56.3
2023-03-06T03:33:07.188Z,56.3
2023-03-06T03:34:50.876Z,56.3
2023-03-06T03:36:34.601Z,56.4
2023-03-06T03:38:18.334Z,56.4
2023-03-06T03:40:02.007Z,56.4
2023-03-06T03:41:45.678Z,56.4
2023-03-06T03:43:29.427Z,56.4
2023-03-06T03:45:13.098Z,56.4
2023-03-06T03:46:56.806Z,56.4
2023-03-06T03:48:40.501Z,56.4
2023-03-06T03:50:24.229Z,56.4
2023-03-06T03:52:07.903Z,56.4
2023-03-06T03:53:51.606Z,56.4
2023-03-06T03:55:35.307Z,56.4
2023-03-06T03:57:19.005Z,56.5
2023-03-06T03:59:02.702Z,56.5
2023-03-06T04:00:46.447Z,56.4
2023-03-06T04:02:30.116Z,56.3
2023-03-06T04:04:13.815Z,56.3
2023-03-06T04:05:57.526Z,56.2
2023-03-06T04:07:41.258Z,56.2
2023-03-06T04:09:24.943Z,56.1
2023-03-06T04:11:08.631Z,56.1
2023-03-06T04:12:52.334Z,56.1
2023-03-06T04:14:36.057Z,56
2023-03-06T04:16:19.735Z,56
2023-03-06T04:18:03.435Z,56
2023-03-06T04:19:47.176Z,55.9
2023-03-06T04:21:30.839Z,55.9
2023-03-06T04:23:14.545Z,56
2023-03-06T04:24:58.244Z,56
2023-03-06T04:26:41.953Z,56
2023-03-06T04:28:25.658Z,56
2023-03-06T04:30:09.365Z,56
2023-03-06T04:31:53.059Z,56
2023-03-06T04:33:36.762Z,56.1
2023-03-06T04:35:20.552Z,56.1
2023-03-06T04:37:04.162Z,56.1
2023-03-06T04:38:47.868Z,56.2
2023-03-06T04:40:31.568Z,56.2
2023-03-06T04:42:15.315Z,56.2
2023-03-06T04:43:59.008Z,56.2
2023-03-06T04:45:42.699Z,56.2
2023-03-06T04:47:26.461Z,56.2
2023-03-06T04:49:10.141Z,56.2
2023-03-06T04:50:53.783Z,56.3
2023-03-06T04:52:37.482Z,56.3
2023-03-06T04:54:21.202Z,56.3
2023-03-06T04:56:04.894Z,56.3
2023-03-06T04:57:48.583Z,56.3
2023-03-06T04:59:32.314Z,56.3
2023-03-06T05:01:15.992Z,56.4
2023-03-06T05:02:59.691Z,56.4
2023-03-06T05:04:43.394Z,56.4
2023-03-06T05:06:27.095Z,56.4
2023-03-06T05:08:10.803Z,56.3
2023-03-06T05:09:54.512Z,56.4
2023-03-06T05:11:38.229Z,56.4
2023-03-06T05:13:21.943Z,56.4
2023-03-06T05:15:05.616Z,56.4
2023-03-06T05:16:49.309Z,56.4
2023-03-06T05:18:33.029Z,56.4
2023-03-06T05:20:16.724Z,56.4
2023-03-06T05:22:00.431Z,56.4
2023-03-06T05:23:44.133Z,56.5
2023-03-06T05:25:27.829Z,56.5
2023-03-06T05:27:11.529Z,56.5
2023-03-06T05:28:55.245Z,56.5
2023-03-06T05:30:38.940Z,56.5
2023-03-06T05:32:22.642Z,56.5
2023-03-06T05:34:06.358Z,56.5
2023-03-06T05:35:50.051Z,56.5
2023-03-06T05:37:33.756Z,56.5
2023-03-06T05:39:17.456Z,56.5
2023-03-06T05:41:01.158Z,56.5
2023-03-06T05:42:44.862Z,56.5
2023-03-06T05:44:28.570Z,56.5
2023-03-06T05:46:12.277Z,56.6
2023-03-06T05:47:55.968Z,56.6
2023-03-06T05:49:39.669Z,56.6
2023-03-06T05:51:23.370Z,56.6
2023-03-06T05:53:07.072Z,56.6
2023-03-06T05:54:50.795Z,56.6
2023-03-06T05:56:34.478Z,56.6
2023-03-06T05:58:18.177Z,56.6
2023-03-06T06:00:01.885Z,56.6
2023-03-06T06:01:45.585Z,56.6
2023-03-06T06:03:29.284Z,56.6
2023-03-06T06:05:12.995Z,56.7
2023-03-06T06:06:56.715Z,56.7
2023-03-06T06:08:40.401Z,56.7
2023-03-06T06:10:24.101Z,56.7
2023-03-06T06:12:07.790Z,56.7
2023-03-06T06:13:51.545Z,56.6
2023-03-06T06:15:35.204Z,56.6
2023-03-06T06:17:18.899Z,56.5
2023-03-06T06:19:02.605Z,56.5
2023-03-06T06:20:46.319Z,56.8
2023-03-06T06:22:30.012Z,57
2023-03-06T06:24:13.717Z,57
2023-03-06T06:25:57.415Z,57.1
2023-03-06T06:27:41.138Z,57.1
2023-03-06T06:29:24.829Z,57.2
2023-03-06T06:31:08.527Z,57.2
2023-03-06T06:32:52.232Z,57.2
2023-03-06T06:34:35.928Z,57.3
2023-03-06T06:36:19.644Z,57.4
2023-03-06T06:38:03.449Z,57.5
2023-03-06T06:41:30.744Z,57.5
2023-03-06T06:43:14.443Z,57.4
2023-03-06T06:44:58.149Z,57.5
2023-03-06T06:46:42.058Z,57.4
2023-03-06T06:48:25.722Z,57.4
2023-03-06T06:50:09.333Z,57.4
2023-03-06T06:51:53.149Z,57.4
2023-03-06T06:53:36.854Z,57.4
2023-03-06T06:55:20.500Z,57.4
2023-03-06T06:57:04.194Z,57.5
2023-03-06T06:58:47.857Z,57.6
2023-03-06T07:00:31.570Z,57.5
2023-03-06T07:02:15.358Z,57.5
2023-03-06T07:03:58.915Z,57.5
2023-03-06T07:05:42.764Z,57.5
2023-03-06T07:07:26.460Z,57.4
2023-03-06T07:09:10.196Z,57.4
2023-03-06T07:10:53.677Z,57.3
2023-03-06T07:12:37.530Z,57.3
2023-03-06T07:14:21.287Z,57.2
2023-03-06T07:16:04.953Z,57.2
2023-03-06T07:17:48.659Z,57.2
2023-03-06T07:19:32.376Z,57.2
2023-03-06T07:21:16.010Z,57.3
2023-03-06T07:22:59.764Z,57.3
2023-03-06T07:24:43.489Z,57.2
2023-03-06T07:26:27.153Z,57.2
2023-03-06T07:28:10.956Z,57.2
2023-03-06T07:29:54.560Z,57.3
2023-03-06T07:31:38.276Z,57.3
2023-03-06T07:33:21.973Z,57.3
2023-03-06T07:35:05.554Z,57.3
2023-03-06T07:36:49.403Z,57.3
2023-03-06T07:38:32.999Z,57.3
2023-03-06T07:40:16.799Z,57.3
2023-03-06T07:42:00.533Z,57.2
2023-03-06T07:43:44.190Z,57.2
2023-03-06T07:45:27.878Z,57.1
2023-03-06T07:47:11.636Z,57
2023-03-06T07:48:55.333Z,56.9
2023-03-06T07:50:38.880Z,56.8
2023-03-06T07:52:22.529Z,56.7
2023-03-06T07:54:06.253Z,56.6
2023-03-06T07:55:50.123Z,56.6
2023-03-06T07:57:33.646Z,56.5
2023-03-06T07:59:17.563Z,56.5
2023-03-06T08:01:01.061Z,56.4
2023-03-06T08:02:44.755Z,56.4
2023-03-06T08:04:28.617Z,56.3
2023-03-06T08:06:12.333Z,56.3
2023-03-06T08:07:56.029Z,56.3
2023-03-06T08:09:39.717Z,56.4
2023-03-06T08:11:23.491Z,56.3
2023-03-06T08:13:07.041Z,56.3
2023-03-06T08:14:50.688Z,56.3
2023-03-06T08:16:34.417Z,56.3
2023-03-06T08:18:18.085Z,56.4
2023-03-06T08:20:01.926Z,56.4
2023-03-06T08:21:45.660Z,56.3
2023-03-06T08:23:29.351Z,56.4
2023-03-06T08:25:13.084Z,56.4
2023-03-06T08:26:56.723Z,56.4
2023-03-06T08:28:40.528Z,56.5
2023-03-06T08:30:24.000Z,56.4
2023-03-06T08:32:07.842Z,56.4
2023-03-06T08:33:51.504Z,56.4
2023-03-06T08:35:35.283Z,56.4
2023-03-06T08:37:19.082Z,56.4
2023-03-06T08:39:02.721Z,56.5
2023-03-06T08:40:46.271Z,56
2023-03-06T08:42:30.090Z,56.2
2023-03-06T08:44:13.828Z,56.2
2023-03-06T08:45:57.493Z,56.3
2023-03-06T08:47:41.198Z,56.3
2023-03-06T08:49:24.804Z,56.4
2023-03-06T08:51:08.570Z,56.4
2023-03-06T08:52:52.316Z,56.5
2023-03-06T08:54:35.967Z,56.6
2023-03-06T08:56:19.603Z,56.6
2023-03-06T08:58:03.239Z,56.6
2023-03-06T08:59:47.086Z,56.6
2023-03-06T09:01:30.648Z,56.6
2023-03-06T09:03:14.360Z,56.4
2023-03-06T09:04:58.048Z,56.4
2023-03-06T09:06:41.848Z,56.5
2023-03-06T09:08:25.448Z,56.6
2023-03-06T09:10:09.336Z,56.6
2023-03-06T09:11:52.932Z,56.5
2023-03-06T09:13:36.614Z,56.5
2023-03-06T09:15:20.273Z,56.6
2023-03-06T09:17:04.134Z,56.5
2023-03-06T09:18:47.675Z,56.5
2023-03-06T09:20:31.415Z,56.5
2023-03-06T09:22:15.113Z,56.5
2023-03-06T09:23:58.852Z,56.5
2023-03-06T09:25:42.480Z,56.5
2023-03-06T09:27:26.311Z,56.5
2023-03-06T09:29:09.912Z,56.5
2023-03-06T09:30:53.609Z,56.5
2023-03-06T09:32:37.354Z,56.4
2023-03-06T09:34:21.167Z,56.4
2023-03-06T09:36:04.901Z,56.5
2023-03-06T09:37:48.637Z,56.4
2023-03-06T09:39:32.291Z,56.4
2023-03-06T09:41:16.056Z,56.5
2023-03-06T09:42:59.574Z,56.4
2023-03-06T09:44:43.437Z,56.4
2023-03-06T09:46:27.010Z,56.5
2023-03-06T09:48:10.741Z,56.5
2023-03-06T09:49:54.426Z,56.5
2023-03-06T09:51:38.148Z,56.5
2023-03-06T09:53:21.810Z,56.5
2023-03-06T09:55:05.433Z,56.4
2023-03-06T09:56:49.284Z,56.4
2023-03-06T09:58:32.928Z,56.4
2023-03-06T10:00:16.547Z,56.4
2023-03-06T10:02:00.243Z,56.4
2023-03-06T10:03:44.266Z,56.4
2023-03-06T10:05:27.651Z,56.4
2023-03-06T10:07:11.381Z,56.4
2023-03-06T10:08:55.133Z,56.4
2023-03-06T10:10:38.804Z,56.4
2023-03-06T10:12:22.455Z,56.4
2023-03-06T10:14:06.265Z,56.4
2023-03-06T10:15:49.901Z,56.4
2023-03-06T10:17:33.907Z,56.4
2023-03-06T10:19:17.373Z,56.4
2023-03-06T10:21:01.133Z,56.4
2023-03-06T10:22:44.710Z,56.4
2023-03-06T10:24:28.501Z,56.4
2023-03-06T10:26:12.095Z,56.4
2023-03-06T10:27:55.776Z,56.4
2023-03-06T10:29:39.564Z,56.4
2023-03-06T10:31:23.212Z,56.4
2023-03-06T10:33:06.914Z,56.4
2023-03-06T10:34:50.772Z,56.4
2023-03-06T10:36:34.291Z,56.4
2023-03-06T10:38:18.001Z,56.4
2023-03-06T10:40:01.699Z,56.4
2023-03-06T10:41:45.559Z,56.4
2023-03-06T10:43:29.139Z,56.4
2023-03-06T10:45:12.820Z,56.4
2023-03-06T10:46:56.593Z,56.4
2023-03-06T10:48:40.360Z,56.4
2023-03-06T10:50:23.915Z,56.4
2023-03-06T10:52:07.817Z,56.4
2023-03-06T10:53:51.424Z,56.5
2023-03-06T10:55:35.178Z,56.5
2023-03-06T10:57:18.825Z,56.6
2023-03-06T10:59:02.437Z,56.6
2023-03-06T11:00:46.365Z,56.6
2023-03-06T11:02:29.868Z,56.6
2023-03-06T11:04:13.625Z,56.6
2023-03-06T11:05:57.237Z,56.6
2023-03-06T11:07:41.059Z,56.6
2023-03-06T11:09:24.641Z,56.6
2023-03-06T11:11:08.488Z,56.5
2023-03-06T11:12:52.188Z,56.5
2023-03-06T11:14:35.776Z,56.9
2023-03-06T11:16:19.488Z,57.8
2023-03-06T11:18:03.202Z,58.3
2023-03-06T11:19:46.905Z,58.4
2023-03-06T11:21:30.645Z,58.5
2023-03-06T11:23:14.254Z,58.4
2023-03-06T11:24:57.971Z,58.3
2023-03-06T11:26:41.738Z,58.2
2023-03-06T11:28:25.448Z,58.1
2023-03-06T11:30:09.156Z,58.2
2023-03-06T11:31:52.949Z,58.2
2023-03-06T11:33:36.524Z,58.1
2023-03-06T11:35:20.271Z,58.1
2023-03-06T11:37:03.944Z,58
2023-03-06T11:38:47.708Z,58.1
2023-03-06T11:40:31.292Z,58
2023-03-06T11:42:14.983Z,58
2023-03-06T11:43:58.690Z,58
2023-03-06T11:45:42.499Z,58
2023-03-06T11:47:26.098Z,58
2023-03-06T11:49:09.885Z,58
2023-03-06T11:50:53.530Z,58
2023-03-06T11:52:37.283Z,58
2023-03-06T11:54:20.965Z,58
2023-03-06T11:56:04.626Z,57.9
2023-03-06T11:57:48.309Z,57.8
2023-03-06T11:59:32.126Z,57.7
2023-03-06T12:01:15.802Z,57.7
2023-03-06T12:02:59.419Z,57.7
2023-03-06T12:04:43.113Z,57.7
2023-03-06T12:06:26.815Z,57.7
2023-03-06T12:08:10.530Z,57.7
2023-03-06T12:09:54.223Z,57.6
2023-03-06T12:11:37.956Z,57.6
2023-03-06T12:13:21.722Z,57.6
2023-03-06T12:15:05.321Z,57.6
2023-03-06T12:16:49.044Z,57.6
2023-03-06T12:18:32.735Z,57.5
2023-03-06T12:20:16.443Z,57.5
2023-03-06T12:22:00.173Z,57.5
2023-03-06T12:23:43.886Z,57.5
2023-03-06T12:25:27.548Z,57.5
2023-03-06T12:27:11.286Z,57.5
2023-03-06T12:28:54.995Z,57.5
2023-03-06T12:30:38.666Z,57.5
2023-03-06T12:32:22.389Z,57.5
2023-03-06T12:34:06.147Z,57.5
2023-03-06T12:37:33.481Z,57.5
2023-03-06T12:39:17.289Z,57.5
2023-03-06T12:41:00.913Z,57.5
2023-03-06T12:42:44.576Z,57.5
2023-03-06T12:44:28.276Z,57.5
2023-03-06T12:46:12.250Z,57.5
2023-03-06T12:47:55.673Z,57.5
2023-03-06T12:49:39.386Z,57.5
2023-03-06T12:51:23.108Z,57.5
2023-03-06T12:53:06.793Z,57.5
2023-03-06T12:54:50.509Z,57.5
2023-03-06T12:56:34.204Z,57.5
2023-03-06T12:58:17.894Z,57.5
2023-03-06T13:00:01.773Z,57.5
2023-03-06T13:01:45.346Z,57.5
2023-03-06T13:03:29.002Z,57.5
2023-03-06T13:06:56.502Z,57.5
2023-03-06T13:08:40.195Z,57.5
2023-03-06T13:10:23.862Z,57.5
2023-03-06T13:12:07.524Z,57.5
2023-03-06T13:13:51.355Z,57.5
2023-03-06T13:15:35.099Z,57.5
2023-03-06T13:17:18.674Z,57.5
2023-03-06T13:19:02.397Z,57.5
2023-03-06T13:20:46.119Z,57.5
2023-03-06T13:22:29.741Z,57.5
2023-03-06T13:24:13.429Z,57.5
2023-03-06T13:25:57.155Z,57.5
2023-03-06T13:27:40.842Z,57.3
2023-03-06T13:29:24.646Z,57.1
2023-03-06T13:31:08.309Z,57
2023-03-06T13:32:52.035Z,57
2023-03-06T13:34:35.654Z,56.9
2023-03-06T13:36:19.480Z,56.8
2023-03-06T13:38:03.067Z,56.7
2023-03-06T13:39:46.769Z,56.7
2023-03-06T13:41:30.596Z,56.6
2023-03-06T13:43:14.158Z,56.6
2023-03-06T13:44:57.865Z,56.6
2023-03-06T13:46:41.694Z,56.5
2023-03-06T13:48:25.359Z,56.6
2023-03-06T13:50:09.118Z,56.5
2023-03-06T13:51:52.752Z,56.5
2023-03-06T13:53:36.492Z,56.6
2023-03-06T13:55:20.086Z,56.6
2023-03-06T13:57:03.965Z,56.7
2023-03-06T13:58:47.606Z,56.7
2023-03-06T14:00:31.227Z,56.7
2023-03-06T14:02:15.134Z,56.7
2023-03-06T14:03:58.760Z,56.8
2023-03-06T14:05:42.318Z,56.8
2023-03-06T14:07:26.164Z,56.8
2023-03-06T14:09:09.844Z,56.8
2023-03-06T14:10:53.561Z,56.6
2023-03-06T14:12:37.299Z,56.6
2023-03-06T14:16:04.680Z,56.4
2023-03-06T14:17:48.334Z,56.3
2023-03-06T14:19:32.065Z,56.2
2023-03-06T14:21:15.612Z,56.2
2023-03-06T14:22:59.448Z,56.1
2023-03-06T14:24:43.036Z,56
2023-03-06T14:26:26.828Z,56
2023-03-06T14:28:10.422Z,56
2023-03-06T14:29:54.114Z,56.1
2023-03-06T14:31:37.844Z,56.2
2023-03-06T14:33:21.665Z,56.2
2023-03-06T14:35:05.474Z,56.3
2023-03-06T14:36:49.186Z,56.3
2023-03-06T14:38:32.737Z,56.3
2023-03-06T14:40:16.464Z,56.4
2023-03-06T14:43:43.839Z,56.5
2023-03-06T14:45:27.553Z,56.7
2023-03-06T14:47:11.149Z,56.7
2023-03-06T14:48:55.021Z,56.6
2023-03-06T14:50:38.718Z,56.4
2023-03-06T14:52:22.259Z,56.4
2023-03-06T14:54:06.137Z,56.2
2023-03-06T14:55:49.812Z,56.1
2023-03-06T14:57:33.497Z,56
2023-03-06T14:59:17.267Z,55.9
2023-03-06T15:01:00.929Z,55.9
2023-03-06T15:02:44.471Z,55.8
2023-03-06T15:04:28.272Z,55.8
2023-03-06T15:06:12.042Z,55.7
2023-03-06T15:07:55.570Z,55.7
2023-03-06T15:09:39.420Z,55.6
2023-03-06T15:11:22.981Z,55.6
2023-03-06T15:13:06.729Z,55.6
2023-03-06T15:14:50.455Z,55.7
2023-03-06T15:16:34.133Z,55.9
2023-03-06T15:18:17.782Z,55.9
2023-03-06T15:20:01.558Z,55.6
2023-03-06T15:21:45.196Z,55.4
2023-03-06T15:23:28.904Z,55.5
2023-03-06T15:25:12.606Z,55.5
2023-03-06T15:26:56.308Z,55.7
2023-03-06T15:28:40.030Z,55.8
2023-03-06T15:30:23.824Z,55.9
2023-03-06T15:32:07.535Z,56.1
2023-03-06T15:33:51.203Z,56.2
2023-03-06T15:35:34.949Z,56.3
2023-03-06T15:37:18.521Z,56.4
2023-03-06T15:39:02.413Z,56.4
2023-03-06T15:40:46.081Z,56.5
2023-03-06T15:42:29.790Z,56.6
2023-03-06T15:44:13.481Z,56.7
2023-03-06T15:45:57.098Z,56.7
2023-03-06T15:47:40.784Z,56.8
2023-03-06T15:49:24.536Z,56.8
2023-03-06T15:51:08.200Z,56.8
2023-03-06T15:52:51.988Z,56.9
2023-03-06T15:54:35.621Z,56.9
2023-03-06T15:56:19.272Z,57
2023-03-06T15:58:02.970Z,57
2023-03-06T15:59:46.669Z,57
2023-03-06T16:01:30.446Z,57
2023-03-06T16:03:14.071Z,57
2023-03-06T16:04:57.931Z,57
2023-03-06T16:06:41.673Z,57
2023-03-06T16:08:25.292Z,57
2023-03-06T16:10:08.877Z,57
2023-03-06T16:11:52.726Z,57
2023-03-06T16:13:36.352Z,56.9
2023-03-06T16:15:20.223Z,56.7
2023-03-06T16:17:03.702Z,56.7
2023-03-06T16:18:47.499Z,56.5
2023-03-06T16:20:31.134Z,56.4
2023-03-06T16:22:14.842Z,56.4
2023-03-06T16:23:58.485Z,56.4
2023-03-06T16:25:42.263Z,56.4
2023-03-06T16:27:25.907Z,56.4
2023-03-06T16:29:09.600Z,56.5
2023-03-06T16:30:53.376Z,56.3
2023-03-06T16:32:37.032Z,56.2
2023-03-06T16:34:20.748Z,56
2023-03-06T16:36:04.627Z,55.8
2023-03-06T16:37:48.341Z,55.9
2023-03-06T16:39:31.968Z,56
2023-03-06T16:41:15.516Z,56.1
2023-03-06T16:42:59.325Z,56.2
2023-03-06T16:44:42.962Z,56.2
2023-03-06T16:46:26.665Z,56.3
2023-03-06T16:48:10.389Z,56.3
2023-03-06T16:49:54.144Z,56.3
2023-03-06T16:51:37.825Z,56.3
2023-03-06T16:53:21.462Z,56.4
2023-03-06T16:55:05.281Z,56.4
2023-03-06T16:56:48.894Z,56.4
2023-03-06T16:58:32.582Z,56.4
2023-03-06T17:00:16.232Z,56.4
2023-03-06T17:02:00.041Z,56.5
2023-03-06T17:03:43.670Z,56.5
2023-03-06T17:05:27.363Z,56.5
2023-03-06T17:07:11.052Z,56.5
2023-03-06T17:08:54.758Z,56.5
2023-03-06T17:10:38.458Z,56.5
2023-03-06T17:12:22.154Z,56.5
2023-03-06T17:14:05.868Z,56.5
2023-03-06T17:15:49.593Z,56.5
2023-03-06T17:17:33.297Z,56.6
2023-03-06T17:19:17.040Z,56.5
2023-03-06T17:21:00.677Z,56.5
2023-03-06T17:22:44.377Z,56.5
2023-03-06T17:24:28.081Z,56.6
2023-03-06T17:26:11.772Z,56.6
2023-03-06T17:27:55.541Z,56.6
2023-03-06T17:29:39.215Z,56.6
2023-03-06T17:31:22.898Z,56.6
2023-03-06T17:33:06.591Z,56.6
2023-03-06T17:34:50.289Z,56.6
2023-03-06T17:36:34.061Z,56.7
2023-03-06T17:38:17.697Z,56.7
2023-03-06T17:40:01.407Z,56.7
2023-03-06T17:41:45.160Z,56.7
2023-03-06T17:43:28.805Z,56.7
2023-03-06T17:45:12.497Z,56.7
2023-03-06T17:46:56.206Z,56.7
2023-03-06T17:48:39.972Z,56.7
2023-03-06T17:50:23.610Z,56.7
2023-03-06T17:52:07.318Z,56.7
2023-03-06T17:53:51.015Z,56.7
2023-03-06T17:55:34.719Z,56.7
2023-03-06T17:57:18.415Z,56.7
2023-03-06T17:59:02.144Z,56.8
2023-03-06T18:00:45.828Z,56.8
2023-03-06T18:02:29.536Z,56.8
2023-03-06T18:04:13.240Z,56.8
2023-03-06T18:05:56.924Z,56.8
2023-03-06T18:07:40.781Z,56.8
2023-03-06T18:09:24.327Z,56.8
2023-03-06T18:11:08.082Z,56.8
2023-03-06T18:12:51.729Z,56.9
2023-03-06T18:14:35.438Z,56.9
2023-03-06T18:16:19.134Z,56.9
2023-03-06T18:18:02.837Z,56.9
2023-03-06T18:19:46.554Z,56.9
2023-03-06T18:21:30.235Z,57
2023-03-06T18:23:13.950Z,57
2023-03-06T18:24:57.653Z,57.1
2023-03-06T18:26:41.347Z,57.1
2023-03-06T18:28:25.049Z,57.1
2023-03-06T18:30:08.784Z,57.3
2023-03-06T18:31:52.486Z,57.2
2023-03-06T18:33:36.161Z,57.2
2023-03-06T18:35:19.869Z,57.3
2023-03-06T18:37:03.609Z,57.3
2023-03-06T18:38:47.332Z,57.3
2023-03-06T18:40:30.962Z,57.5
2023-03-06T18:42:14.785Z,57.5
2023-03-06T18:43:58.388Z,57.5
2023-03-06T18:45:42.078Z,57.5
2023-03-06T18:47:25.790Z,57.7
2023-03-06T18:49:09.486Z,57.9
2023-03-06T18:50:53.184Z,58
2023-03-06T18:52:37.009Z,58
2023-03-06T18:54:20.715Z,58
2023-03-06T18:56:04.293Z,58.5
2023-03-06T18:57:47.992Z,59.5
2023-03-06T18:59:31.688Z,59.7
2023-03-06T19:01:15.391Z,60.5
2023-03-06T19:02:59.108Z,61
2023-03-06T19:04:42.815Z,61.7
2023-03-06T19:06:26.509Z,60.9
2023-03-06T19:08:10.203Z,60.9
2023-03-06T19:09:53.943Z,60.5
2023-03-06T19:11:37.638Z,60.3
2023-03-06T19:13:21.313Z,60.1
2023-03-06T19:15:05.020Z,60
2023-03-06T19:16:48.730Z,60
2023-03-06T19:18:32.467Z,59.8
2023-03-06T19:20:16.124Z,59.6
2023-03-06T19:21:59.892Z,59.6
2023-03-06T19:23:43.531Z,59.7
2023-03-06T19:25:27.241Z,59.6
2023-03-06T19:27:10.929Z,59.7
2023-03-06T19:28:54.640Z,59.6
2023-03-06T19:30:38.348Z,59.6
2023-03-06T19:32:22.082Z,59.5
2023-03-06T19:34:05.751Z,59.5
2023-03-06T19:35:49.447Z,59
2023-03-06T19:37:33.167Z,59.1
2023-03-06T19:39:16.861Z,59.2
2023-03-06T19:41:00.557Z,59.4
2023-03-06T19:42:44.258Z,59.6
2023-03-06T19:44:28.038Z,59.6
2023-03-06T19:46:11.678Z,59.7
2023-03-06T19:47:55.370Z,59.6
2023-03-06T19:49:39.068Z,59.7
2023-03-06T19:51:22.783Z,59.6
2023-03-06T19:53:06.481Z,60
2023-03-06T19:54:50.179Z,60.4
2023-03-06T19:56:33.912Z,61.1
2023-03-06T19:58:17.586Z,61.7
2023-03-06T20:00:01.286Z,62.2
2023-03-06T20:01:45.001Z,62.2
2023-03-06T20:03:28.697Z,62.6
2023-03-06T20:05:12.396Z,61.7
2023-03-06T20:06:56.110Z,61.2
2023-03-06T20:08:39.799Z,60.8
2023-03-06T20:10:23.500Z,60.7
2023-03-06T20:12:07.209Z,60.4
2023-03-06T20:13:50.923Z,60.3
2023-03-06T20:15:34.610Z,60.3
2023-03-06T20:17:18.305Z,60.2
2023-03-06T20:19:02.026Z,60.1
2023-03-06T20:20:45.737Z,60.1
2023-03-06T20:22:29.398Z,60
2023-03-06T20:24:13.110Z,59.9
2023-03-06T20:25:56.819Z,59.8
2023-03-06T20:27:40.525Z,59.6
2023-03-06T20:29:24.223Z,59.4
2023-03-06T20:31:07.949Z,59.2
2023-03-06T20:32:51.631Z,58.9
2023-03-06T20:34:35.330Z,58.9
2023-03-06T20:36:19.031Z,59
2023-03-06T20:38:02.737Z,59.1
2023-03-06T20:39:46.448Z,59.4
2023-03-06T20:41:30.190Z,59.4
2023-03-06T20:43:13.837Z,59.6
2023-03-06T20:44:57.541Z,59.5
2023-03-06T20:46:41.269Z,59.5
2023-03-06T20:48:24.956Z,59.5
2023-03-06T20:50:08.727Z,59.6
2023-03-06T20:51:52.440Z,59.7
2023-03-06T20:53:36.088Z,59.6
2023-03-06T20:55:19.761Z,59.8
2023-03-06T20:57:03.466Z,59.8
2023-03-06T20:58:47.173Z,59.9
2023-03-06T21:00:30.905Z,59.9
2023-03-06T21:02:14.688Z,60
2023-03-06T21:03:58.273Z,60
2023-03-06T21:05:41.984Z,60
2023-03-06T21:07:25.698Z,60
2023-03-06T21:09:09.393Z,60.1
2023-03-06T21:10:53.086Z,60.1
2023-03-06T21:12:36.795Z,60.1
2023-03-06T21:14:20.623Z,60.1
2023-03-06T21:16:04.215Z,60.2
2023-03-06T21:17:47.954Z,60.2
2023-03-06T21:19:31.602Z,60.2
2023-03-06T21:21:15.307Z,60.1
2023-03-06T21:22:59.027Z,60
2023-03-06T21:24:42.702Z,60
2023-03-06T21:26:26.418Z,60
2023-03-06T21:28:10.127Z,59.8
2023-03-06T21:29:53.811Z,59.3
2023-03-06T21:31:37.517Z,59.3
2023-03-06T21:33:21.229Z,59.5
2023-03-06T21:35:04.922Z,59.7
2023-03-06T21:36:48.624Z,59.7
2023-03-06T21:38:32.329Z,59.6
2023-03-06T21:40:16.046Z,59.5
2023-03-06T21:41:59.727Z,59.1
2023-03-06T21:43:43.438Z,59.1
2023-03-06T21:45:27.140Z,59
2023-03-06T21:47:10.833Z,58.5
2023-03-06T21:48:54.543Z,58.4
2023-03-06T21:50:38.278Z,58.8
2023-03-06T21:52:21.947Z,58.7
2023-03-06T21:54:05.645Z,58.5
2023-03-06T21:55:49.341Z,58.4
2023-03-06T21:57:33.105Z,58.4
2023-03-06T21:59:16.789Z,58.4
2023-03-06T22:01:00.496Z,58.4
2023-03-06T22:02:44.173Z,58.3
2023-03-06T22:04:27.865Z,58.3
2023-03-06T22:06:11.562Z,58.2
2023-03-06T22:07:55.267Z,58.1
2023-03-06T22:09:39.006Z,58.1
2023-03-06T22:11:22.682Z,58.1
2023-03-06T22:13:06.399Z,58.1
2023-03-06T22:14:50.081Z,58.2
2023-03-06T22:16:33.797Z,58.2
2023-03-06T22:18:17.555Z,58.1
2023-03-06T22:20:01.187Z,58
2023-03-06T22:21:44.893Z,58
2023-03-06T22:23:28.586Z,57.8
2023-03-06T22:25:12.304Z,57.7
2023-03-06T22:26:55.993Z,57.7
2023-03-06T22:28:39.693Z,57.7
2023-03-06T22:30:23.400Z,57.8
2023-03-06T22:32:07.107Z,57.9
2023-03-06T22:33:50.794Z,57.7
2023-03-06T22:35:34.498Z,57.7
2023-03-06T22:37:18.230Z,57.5
2023-03-06T22:39:01.900Z,57.3
2023-03-06T22:40:45.607Z,57.6
2023-03-06T22:42:29.299Z,57.8
2023-03-06T22:44:13.012Z,58.1
2023-03-06T22:45:56.714Z,58.3
2023-03-06T22:47:40.412Z,58.4
2023-03-06T22:49:24.117Z,58.5
2023-03-06T22:51:07.814Z,58.6
2023-03-06T22:52:51.526Z,58.7
2023-03-06T22:54:35.213Z,58.8
2023-03-06T22:56:18.919Z,58.9
2023-03-06T22:58:02.618Z,58.9
2023-03-06T22:59:46.357Z,59
2023-03-06T23:01:30.020Z,59.1
2023-03-06T23:03:13.735Z,59.2
2023-03-06T23:04:57.435Z,59.2
2023-03-06T23:06:41.136Z,59.3
2023-03-06T23:08:24.837Z,59.3
2023-03-06T23:10:08.538Z,59.4
2023-03-06T23:11:52.232Z,59.4
2023-03-06T23:13:35.946Z,59.5
2023-03-06T23:15:19.640Z,59.5
2023-03-06T23:17:03.372Z,59.5